createdAt,value
2023-03-19T00:01:05.258Z,99589.13
2023-03-19T00:03:34.488Z,99591.91
2023-03-19T00:06:03.195Z,99585.75
2023-03-19T00:08:31.473Z,99576.44
2023-03-19T00:11:00.103Z,99580.78
2023-03-19T00:13:28.241Z,99585.91
2023-03-19T00:15:56.501Z,99583.94
2023-03-19T00:18:25.466Z,99582.56
2023-03-19T00:20:53.574Z,99581.19
2023-03-19T00:23:21.750Z,99580.66
2023-03-19T00:25:50.214Z,99575.03
2023-03-19T00:28:18.735Z,99575.19
2023-03-19T00:30:47.056Z,99576.50
2023-03-19T00:33:15.598Z,99581.63
2023-03-19T00:35:43.761Z,99573.87
2023-03-19T00:38:11.946Z,99569.66
2023-03-19T00:40:40.487Z,99566.19
2023-03-19T00:43:08.667Z,99564.09
2023-03-19T00:45:36.886Z,99559.78
2023-03-19T00:48:05.507Z,99564.09
2023-03-19T00:50:34.099Z,99551.72
2023-03-19T00:53:02.327Z,99545.75
2023-03-19T00:55:30.898Z,99558.37
2023-03-19T00:57:59.206Z,99555.66
2023-03-19T01:00:27.938Z,99558.00
2023-03-19T01:02:56.416Z,99551.44
2023-03-19T01:05:24.718Z,99548.41
2023-03-19T01:07:53.142Z,99557.59
2023-03-19T01:10:23.926Z,99568.66
2023-03-19T01:12:52.410Z,99559.66
2023-03-19T01:17:49.123Z,99553.34
2023-03-19T01:20:19.291Z,99569.28
2023-03-19T01:22:47.559Z,99561.34
2023-03-19T01:25:16.427Z,99559.28
2023-03-19T01:27:45.410Z,99561.19
2023-03-19T01:30:15.685Z,99566.53
2023-03-19T01:32:46.552Z,99563.66
2023-03-19T01:35:15.016Z,99569.63
2023-03-19T01:37:43.403Z,99558.16
2023-03-19T01:40:14.709Z,99569.78
2023-03-19T01:43:14.370Z,99555.94
2023-03-19T01:45:44.112Z,99555.22
2023-03-19T01:48:41.693Z,99563.41
2023-03-19T01:51:12.570Z,99568.69
2023-03-19T01:53:44.369Z,99567.34
2023-03-19T01:56:16.810Z,99565.91
2023-03-19T01:58:47.091Z,99573.91
2023-03-19T02:01:15.873Z,99566.44
2023-03-19T02:03:46.002Z,99560.22
2023-03-19T02:06:18.347Z,99562.41
2023-03-19T02:08:47.357Z,99556.78
2023-03-19T02:11:16.208Z,99550.34
2023-03-19T02:13:44.398Z,99549.22
2023-03-19T02:16:12.942Z,99550.22
2023-03-19T02:18:42.097Z,99550.94
2023-03-19T02:21:13.513Z,99554.53
2023-03-19T02:23:48.037Z,99549.41
2023-03-19T02:26:24.782Z,99544.78
2023-03-19T02:28:54.080Z,99540.28
2023-03-19T02:31:23.853Z,99536.72
2023-03-19T02:34:06.956Z,99538.34
2023-03-19T02:36:44.957Z,99534.03
2023-03-19T02:39:21.874Z,99530.34
2023-03-19T02:41:52.616Z,99527.31
2023-03-19T02:44:21.232Z,99535.37
2023-03-19T02:46:50.220Z,99536.13
2023-03-19T02:49:19.215Z,99530.53
2023-03-19T02:51:47.420Z,99528.84
2023-03-19T02:54:15.673Z,99529.56
2023-03-19T02:56:44.233Z,99539.47
2023-03-19T02:59:12.614Z,99536.28
2023-03-19T03:01:41.359Z,99534.81
2023-03-19T03:04:10.020Z,99539.47
2023-03-19T03:06:38.182Z,99539.25
2023-03-19T03:09:06.819Z,99538.53
2023-03-19T03:11:36.123Z,99535.94
2023-03-19T03:14:04.340Z,99529.34
2023-03-19T03:16:33.420Z,99540.19
2023-03-19T03:19:02.864Z,99540.09
2023-03-19T03:21:32.004Z,99543.44
2023-03-19T03:24:02.242Z,99540.19
2023-03-19T03:26:30.744Z,99538.94
2023-03-19T03:28:59.044Z,99540.25
2023-03-19T03:31:28.406Z,99540.03
2023-03-19T03:33:56.634Z,99540.44
2023-03-19T03:36:24.815Z,99541.31
2023-03-19T03:38:54.070Z,99540.94
2023-03-19T03:41:22.483Z,99545.97
2023-03-19T03:43:51.353Z,99528.91
2023-03-19T03:46:20.334Z,99534.44
2023-03-19T03:48:51.679Z,99531.25
2023-03-19T03:51:20.814Z,99545.50
2023-03-19T03:53:52.338Z,99549.59
2023-03-19T03:56:21.055Z,99543.16
2023-03-19T03:58:49.241Z,99548.97
2023-03-19T04:01:18.285Z,99541.09
2023-03-19T04:03:48.091Z,99547.41
2023-03-19T04:06:18.838Z,99547.81
2023-03-19T04:08:49.646Z,99547.47
2023-03-19T04:11:19.403Z,99548.28
2023-03-19T04:13:48.250Z,99542.16
2023-03-19T04:16:16.993Z,99537.25
2023-03-19T04:18:45.403Z,99523.38
2023-03-19T04:21:14.005Z,99522.25
2023-03-19T04:23:42.173Z,99525.78
2023-03-19T04:26:10.602Z,99521.41
2023-03-19T04:28:39.336Z,99510.00
2023-03-19T04:31:09.808Z,99521.41
2023-03-19T04:33:39.158Z,99522.84
2023-03-19T04:36:07.929Z,99519.72
2023-03-19T04:38:37.027Z,99524.03
2023-03-19T04:41:06.252Z,99525.94
2023-03-19T04:43:35.286Z,99534.38
2023-03-19T04:46:04.022Z,99540.44
2023-03-19T04:48:34.135Z,99543.47
2023-03-19T04:51:08.994Z,99545.13
2023-03-19T04:53:38.397Z,99541.91
2023-03-19T04:56:08.317Z,99542.63
2023-03-19T04:58:36.754Z,99541.94
2023-03-19T05:01:05.769Z,99546.56
2023-03-19T05:03:36.465Z,99547.22
2023-03-19T05:06:05.478Z,99544.63
2023-03-19T05:08:34.183Z,99545.66
2023-03-19T05:11:02.928Z,99543.34
2023-03-19T05:13:32.391Z,99547.22
2023-03-19T05:16:01.889Z,99552.44
2023-03-19T05:18:31.273Z,99553.22
2023-03-19T05:21:00.922Z,99548.50
2023-03-19T05:23:29.276Z,99551.09
2023-03-19T05:26:01.411Z,99560.13
2023-03-19T05:28:32.621Z,99556.06
2023-03-19T05:31:05.461Z,99559.75
2023-03-19T05:33:34.484Z,99559.31
2023-03-19T05:36:03.435Z,99549.69
2023-03-19T05:38:32.846Z,99562.91
2023-03-19T05:41:06.032Z,99558.06
2023-03-19T05:43:35.773Z,99552.75
2023-03-19T05:46:05.608Z,99549.38
2023-03-19T05:48:33.991Z,99542.22
2023-03-19T05:51:02.755Z,99543.41
2023-03-19T05:53:31.815Z,99542.69
2023-03-19T05:56:01.595Z,99553.69
2023-03-19T05:58:31.242Z,99557.47
2023-03-19T06:00:59.704Z,99552.06
2023-03-19T06:03:28.377Z,99546.03
2023-03-19T06:05:58.057Z,99549.75
2023-03-19T06:08:27.436Z,99552.03
2023-03-19T06:10:56.424Z,99566.41
2023-03-19T06:13:24.735Z,99566.31
2023-03-19T06:15:53.588Z,99563.44
2023-03-19T06:18:23.310Z,99574.47
2023-03-19T06:20:51.737Z,99574.66
2023-03-19T06:23:20.309Z,99581.59
2023-03-19T06:25:49.366Z,99588.28
2023-03-19T06:28:17.898Z,99585.50
2023-03-19T06:30:46.340Z,99581.44
2023-03-19T06:33:16.817Z,99587.44
2023-03-19T06:35:45.363Z,99590.19
2023-03-19T06:38:14.264Z,99591.97
2023-03-19T06:40:44.891Z,99589.59
2023-03-19T06:43:13.724Z,99601.53
2023-03-19T06:45:42.282Z,99584.47
2023-03-19T06:48:10.875Z,99589.44
2023-03-19T06:50:39.191Z,99593.94
2023-03-19T06:53:08.245Z,99586.19
2023-03-19T06:55:37.801Z,99593.34
2023-03-19T06:58:07.189Z,99584.16
2023-03-19T07:00:36.196Z,99579.97
2023-03-19T07:03:04.958Z,99583.31
2023-03-19T07:05:33.307Z,99581.91
2023-03-19T07:08:01.903Z,99573.38
2023-03-19T07:10:30.676Z,99574.97
2023-03-19T07:12:58.834Z,99587.19
2023-03-19T07:15:27.069Z,99580.50
2023-03-19T07:17:55.687Z,99581.41
2023-03-19T07:20:24.114Z,99589.19
2023-03-19T07:22:52.678Z,99585.75
2023-03-19T07:25:21.440Z,99591.75
2023-03-19T07:27:49.757Z,99588.69
2023-03-19T07:30:18.182Z,99588.69
2023-03-19T07:32:47.313Z,99594.81
2023-03-19T07:35:15.903Z,99594.97
2023-03-19T07:37:44.212Z,99588.78
2023-03-19T07:40:13.175Z,99587.88
2023-03-19T07:42:42.826Z,99591.06
2023-03-19T07:45:13.528Z,99588.94
2023-03-19T07:47:41.860Z,99587.88
2023-03-19T07:50:11.084Z,99577.91
2023-03-19T07:52:39.631Z,99583.63
2023-03-19T07:55:08.204Z,99587.53
2023-03-19T07:57:36.345Z,99583.16
2023-03-19T08:00:05.845Z,99584.03
2023-03-19T08:02:43.018Z,99576.75
2023-03-19T08:05:11.961Z,99577.53
2023-03-19T08:07:40.248Z,99577.53
2023-03-19T08:10:09.054Z,99575.22
2023-03-19T08:12:41.397Z,99583.03
2023-03-19T08:15:11.867Z,99574.00
2023-03-19T08:17:40.693Z,99574.03
2023-03-19T08:20:11.672Z,99576.56
2023-03-19T08:22:40.821Z,99570.62
2023-03-19T08:25:10.922Z,99577.69
2023-03-19T08:27:39.229Z,99579.91
2023-03-19T08:30:08.837Z,99578.06
2023-03-19T08:32:37.439Z,99577.06
2023-03-19T08:35:06.603Z,99581.75
2023-03-19T08:37:34.749Z,99582.09
2023-03-19T08:40:04.579Z,99577.25
2023-03-19T08:42:32.745Z,99580.59
2023-03-19T08:45:00.940Z,99580.22
2023-03-19T08:47:29.658Z,99571.84
2023-03-19T08:49:57.866Z,99576.88
2023-03-19T08:52:26.369Z,99573.59
2023-03-19T08:54:54.971Z,99573.09
2023-03-19T08:57:23.532Z,99560.81
2023-03-19T08:59:53.405Z,99562.75
2023-03-19T09:02:21.977Z,99563.62
2023-03-19T09:04:50.333Z,99568.44
2023-03-19T09:07:18.705Z,99571.38
2023-03-19T09:09:47.199Z,99562.56
2023-03-19T09:12:17.161Z,99571.25
2023-03-19T09:14:45.597Z,99567.94
2023-03-19T09:17:15.758Z,99558.41
2023-03-19T09:19:44.038Z,99560.38
2023-03-19T09:22:12.112Z,99563.94
2023-03-19T09:24:40.868Z,99554.78
2023-03-19T09:27:09.108Z,99553.03
2023-03-19T09:29:37.471Z,99551.28
2023-03-19T09:32:06.435Z,99543.75
2023-03-19T09:34:34.559Z,99535.44
2023-03-19T09:37:02.750Z,99541.91
2023-03-19T09:39:32.721Z,99539.50
2023-03-19T09:42:42.150Z,99537.03
2023-03-19T09:45:18.839Z,99531.50
2023-03-19T09:47:48.098Z,99530.66
2023-03-19T09:50:19.232Z,99536.19
2023-03-19T09:52:50.264Z,99530.28
2023-03-19T09:55:27.259Z,99535.75
2023-03-19T09:57:57.257Z,99534.38
2023-03-19T10:00:31.580Z,99542.41
2023-03-19T10:03:12.669Z,99546.00
2023-03-19T10:06:12.935Z,99536.94
2023-03-19T10:09:06.165Z,99536.41
2023-03-19T10:11:53.056Z,99521.59
2023-03-19T10:14:44.466Z,99535.97
2023-03-19T10:17:16.772Z,99526.34
2023-03-19T10:19:47.653Z,99529.13
2023-03-19T10:22:22.712Z,99524.16
2023-03-19T10:24:52.943Z,99525.94
2023-03-19T10:27:23.207Z,99515.75
2023-03-19T10:29:52.557Z,99525.75
2023-03-19T10:32:45.439Z,99524.91
2023-03-19T10:35:20.840Z,99519.06
2023-03-19T10:37:52.477Z,99506.94
2023-03-19T10:40:34.105Z,99511.94
2023-03-19T10:43:17.383Z,99506.47
2023-03-19T10:45:46.943Z,99503.00
2023-03-19T10:48:19.435Z,99499.19
2023-03-19T10:50:54.441Z,99488.19
2023-03-19T10:53:35.361Z,99491.41
2023-03-19T10:56:08.451Z,99489.31
2023-03-19T10:58:37.762Z,99500.22
2023-03-19T11:01:12.357Z,99493.69
2023-03-19T11:03:51.211Z,99480.97
2023-03-19T11:06:34.061Z,99473.00
2023-03-19T11:09:08.464Z,99473.00
2023-03-19T11:11:42.855Z,99459.72
2023-03-19T11:14:22.723Z,99457.66
2023-03-19T11:17:08.291Z,99462.13
2023-03-19T11:19:44.726Z,99444.22
2023-03-19T11:22:20.390Z,99458.66
2023-03-19T11:25:18.944Z,99454.31
2023-03-19T11:28:02.624Z,99438.06
2023-03-19T11:30:39.252Z,99435.59
2023-03-19T11:33:25.972Z,99435.50
2023-03-19T11:36:03.643Z,99438.94
2023-03-19T11:39:06.888Z,99438.19
2023-03-19T11:41:44.214Z,99441.50
2023-03-19T11:44:42.582Z,99430.66
2023-03-19T11:47:27.557Z,99427.81
2023-03-19T11:50:18.755Z,99429.31
2023-03-19T11:53:05.208Z,99429.53
2023-03-19T11:55:39.682Z,99421.66
2023-03-19T11:58:23.274Z,99415.69
2023-03-19T12:00:53.323Z,99410.25
2023-03-19T12:03:34.511Z,99421.84
2023-03-19T12:06:38.344Z,99418.41
2023-03-19T12:09:23.857Z,99402.38
2023-03-19T12:12:12.006Z,99409.25
2023-03-19T12:14:40.535Z,99392.28
2023-03-19T12:17:36.236Z,99386.03
2023-03-19T12:20:28.779Z,99388.44
2023-03-19T12:23:05.818Z,99386.38
2023-03-19T12:25:50.936Z,99382.47
2023-03-19T12:28:22.971Z,99371.16
2023-03-19T12:31:23.475Z,99372.97
2023-03-19T12:34:14.910Z,99372.75
2023-03-19T12:36:53.653Z,99380.03
2023-03-19T12:39:31.798Z,99365.53
2023-03-19T12:42:02.073Z,99363.44
2023-03-19T12:44:49.510Z,99362.63
2023-03-19T12:47:34.840Z,99356.09
2023-03-19T12:50:08.690Z,99348.06
2023-03-19T12:52:43.842Z,99338.47
2023-03-19T12:55:13.532Z,99338.28
2023-03-19T12:57:41.948Z,99329.75
2023-03-19T13:00:25.570Z,99330.56
2023-03-19T13:03:14.324Z,99328.66
2023-03-19T13:05:57.282Z,99326.38
2023-03-19T13:08:55.726Z,99331.37
2023-03-19T13:11:42.489Z,99332.13
2023-03-19T13:14:18.927Z,99320.06
2023-03-19T13:16:55.699Z,99315.75
2023-03-19T13:19:30.265Z,99319.19
2023-03-19T13:22:01.388Z,99317.69
2023-03-19T13:24:34.247Z,99314.87
2023-03-19T13:27:03.385Z,99315.56
2023-03-19T13:29:34.310Z,99309.31
2023-03-19T13:32:23.314Z,99311.59
2023-03-19T13:35:29.110Z,99306.97
2023-03-19T13:38:02.901Z,99301.28
2023-03-19T13:40:54.384Z,99292.16
2023-03-19T13:43:43.256Z,99291.69
2023-03-19T13:46:16.166Z,99288.56
2023-03-19T13:48:47.217Z,99289.38
2023-03-19T13:51:18.427Z,99287.88
2023-03-19T13:54:14.333Z,99290.91
2023-03-19T13:57:01.376Z,99283.69
2023-03-19T13:59:46.836Z,99285.28
2023-03-19T14:02:21.561Z,99273.19
2023-03-19T14:04:58.871Z,99269.44
2023-03-19T14:07:29.959Z,99271.94
2023-03-19T14:10:00.301Z,99267.28
2023-03-19T14:12:38.844Z,99278.97
2023-03-19T14:15:07.672Z,99277.03
2023-03-19T14:17:48.802Z,99272.59
2023-03-19T14:20:28.029Z,99278.41
2023-03-19T14:23:11.351Z,99274.38
2023-03-19T14:25:58.472Z,99276.91
2023-03-19T14:28:45.600Z,99281.34
2023-03-19T14:31:38.419Z,99272.31
2023-03-19T14:34:13.772Z,99270.34
2023-03-19T14:36:47.121Z,99270.34
2023-03-19T14:39:22.565Z,99272.41
2023-03-19T14:41:57.187Z,99276.56
2023-03-19T14:44:49.549Z,99267.81
2023-03-19T14:47:41.341Z,99264.72
2023-03-19T14:50:30.672Z,99269.59
2023-03-19T14:53:33.078Z,99266.72
2023-03-19T14:56:14.049Z,99261.34
2023-03-19T14:58:57.538Z,99268.22
2023-03-19T15:01:27.440Z,99264.63
2023-03-19T15:04:09.941Z,99267.31
2023-03-19T15:06:43.590Z,99268.34
2023-03-19T15:09:27.465Z,99265.75
2023-03-19T15:12:15.913Z,99262.44
2023-03-19T15:15:13.424Z,99263.41
2023-03-19T15:17:43.698Z,99271.25
2023-03-19T15:20:23.591Z,99263.69
2023-03-19T15:23:25.770Z,99261.56
2023-03-19T15:26:01.502Z,99256.88
2023-03-19T15:28:38.018Z,99262.03
2023-03-19T15:31:28.807Z,99269.47
2023-03-19T15:33:55.921Z,99268.00
2023-03-19T15:36:33.704Z,99258.19
2023-03-19T15:39:05.327Z,99263.94
2023-03-19T15:41:41.507Z,99258.03
2023-03-19T15:44:16.286Z,99261.50
2023-03-19T15:46:47.529Z,99267.81
2023-03-19T15:49:27.679Z,99276.84
2023-03-19T15:52:00.144Z,99268.50
2023-03-19T15:54:28.757Z,99270.72
2023-03-19T15:56:57.687Z,99269.19
2023-03-19T15:59:30.428Z,99266.72
2023-03-19T16:02:04.010Z,99273.91
2023-03-19T16:04:45.680Z,99283.19
2023-03-19T16:07:27.363Z,99280.81
2023-03-19T16:09:56.083Z,99278.06
2023-03-19T16:12:41.446Z,99278.56
2023-03-19T16:15:47.489Z,99277.75
2023-03-19T16:18:18.815Z,99278.81
2023-03-19T16:21:07.646Z,99272.62
2023-03-19T16:23:53.350Z,99269.47
2023-03-19T16:26:43.445Z,99269.47
2023-03-19T16:29:21.840Z,99274.75
2023-03-19T16:31:53.406Z,99276.25
2023-03-19T16:34:46.905Z,99284.19
2023-03-19T16:37:37.688Z,99280.75
2023-03-19T16:40:17.740Z,99289.63
2023-03-19T16:42:47.517Z,99290.69
2023-03-19T16:45:15.940Z,99291.56
2023-03-19T16:47:52.246Z,99293.91
2023-03-19T16:50:23.126Z,99294.25
2023-03-19T16:52:51.575Z,99296.56
2023-03-19T16:55:23.919Z,99295.03
2023-03-19T16:58:05.212Z,99301.16
2023-03-19T17:00:34.056Z,99298.84
2023-03-19T17:03:02.792Z,99309.50
2023-03-19T17:05:31.369Z,99304.69
2023-03-19T17:07:59.753Z,99295.22
2023-03-19T17:10:29.085Z,99300.13
2023-03-19T17:12:57.521Z,99313.59
2023-03-19T17:15:30.298Z,99308.03
2023-03-19T17:17:59.772Z,99307.56
2023-03-19T17:20:32.822Z,99317.38
2023-03-19T17:23:01.652Z,99318.53
2023-03-19T17:25:30.228Z,99315.44
2023-03-19T17:27:58.391Z,99318.41
2023-03-19T17:30:28.946Z,99314.75
2023-03-19T17:32:57.963Z,99316.78
2023-03-19T17:35:28.626Z,99312.38
2023-03-19T17:37:56.924Z,99315.34
2023-03-19T17:40:30.024Z,99313.63
2023-03-19T17:42:58.743Z,99319.28
2023-03-19T17:45:30.158Z,99315.34
2023-03-19T17:47:59.231Z,99315.81
2023-03-19T17:50:29.974Z,99317.72
2023-03-19T17:52:59.122Z,99319.50
2023-03-19T17:55:29.610Z,99318.53
2023-03-19T17:57:59.678Z,99318.13
2023-03-19T18:00:28.433Z,99314.72
2023-03-19T18:02:57.351Z,99312.03
2023-03-19T18:05:27.674Z,99310.56
2023-03-19T18:07:58.348Z,99311.56
2023-03-19T18:10:30.241Z,99309.78
2023-03-19T18:13:00.619Z,99312.31
2023-03-19T18:15:31.807Z,99307.00
2023-03-19T18:18:01.559Z,99309.63
2023-03-19T18:20:34.879Z,99303.59
2023-03-19T18:23:05.233Z,99305.97
2023-03-19T18:25:35.883Z,99301.88
2023-03-19T18:28:05.842Z,99304.38
2023-03-19T18:30:35.705Z,99309.72
2023-03-19T18:33:07.348Z,99309.72
2023-03-19T18:35:42.840Z,99314.78
2023-03-19T18:38:17.759Z,99313.13
2023-03-19T18:40:47.497Z,99314.69
2023-03-19T18:43:16.574Z,99311.12
2023-03-19T18:45:48.009Z,99317.72
2023-03-19T18:48:18.531Z,99323.41
2023-03-19T18:50:47.986Z,99313.16
2023-03-19T18:53:22.084Z,99312.22
2023-03-19T18:55:58.230Z,99312.22
2023-03-19T18:58:28.643Z,99313.00
2023-03-19T19:00:58.463Z,99319.06
2023-03-19T19:03:29.641Z,99318.34
2023-03-19T19:05:58.638Z,99311.19
2023-03-19T19:08:30.161Z,99316.25
2023-03-19T19:11:03.861Z,99308.53
2023-03-19T19:13:53.287Z,99317.41
2023-03-19T19:16:38.283Z,99323.56
2023-03-19T19:19:17.412Z,99320.72
2023-03-19T19:21:46.527Z,99318.19
2023-03-19T19:24:15.415Z,99316.44
2023-03-19T19:26:50.752Z,99321.16
2023-03-19T19:29:27.521Z,99321.56
2023-03-19T19:31:56.186Z,99325.47
2023-03-19T19:34:24.910Z,99315.28
2023-03-19T19:36:55.766Z,99325.53
2023-03-19T19:39:24.333Z,99322.78
2023-03-19T19:41:54.780Z,99320.19
2023-03-19T19:44:23.201Z,99319.06
2023-03-19T19:46:54.739Z,99319.09
2023-03-19T19:49:23.560Z,99313.09
2023-03-19T19:51:52.817Z,99313.59
2023-03-19T19:54:22.071Z,99317.59
2023-03-19T19:56:54.294Z,99320.72
2023-03-19T19:59:23.931Z,99324.56
2023-03-19T20:01:52.686Z,99320.31
2023-03-19T20:04:22.053Z,99317.72
2023-03-19T20:06:51.850Z,99322.31
2023-03-19T20:09:21.247Z,99326.03
2023-03-19T20:11:51.611Z,99326.72
2023-03-19T20:14:20.344Z,99326.34
2023-03-19T20:16:50.641Z,99323.34
2023-03-19T20:19:22.338Z,99324.94
2023-03-19T20:21:52.509Z,99321.56
2023-03-19T20:24:21.267Z,99321.22
2023-03-19T20:26:49.684Z,99321.78
2023-03-19T20:29:18.600Z,99320.25
2023-03-19T20:31:47.238Z,99313.66
2023-03-19T20:34:25.391Z,99316.41
2023-03-19T20:37:01.253Z,99314.37
2023-03-19T20:39:29.576Z,99321.25
2023-03-19T20:41:57.698Z,99326.97
2023-03-19T20:44:26.456Z,99324.69
2023-03-19T20:46:54.522Z,99316.63
2023-03-19T20:49:23.169Z,99309.22
2023-03-19T20:51:51.958Z,99321.13
2023-03-19T20:54:20.095Z,99315.13
2023-03-19T20:56:48.348Z,99318.31
2023-03-19T20:59:17.014Z,99318.84
2023-03-19T21:01:45.290Z,99308.03
2023-03-19T21:04:19.478Z,99309.09
2023-03-19T21:06:53.524Z,99314.31
2023-03-19T21:09:23.553Z,99312.19
2023-03-19T21:11:55.101Z,99307.81
2023-03-19T21:14:27.747Z,99308.25
2023-03-19T21:16:56.383Z,99300.34
2023-03-19T21:19:25.497Z,99305.19
2023-03-19T21:21:54.115Z,99302.56
2023-03-19T21:24:22.854Z,99305.25
2023-03-19T21:26:51.307Z,99302.38
2023-03-19T21:29:31.366Z,99308.63
2023-03-19T21:31:59.840Z,99306.91
2023-03-19T21:34:28.835Z,99309.44
2023-03-19T21:36:57.060Z,99299.75
2023-03-19T21:39:25.599Z,99307.37
2023-03-19T21:41:54.177Z,99316.81
2023-03-19T21:44:23.079Z,99305.81
2023-03-19T21:46:51.738Z,99305.19
2023-03-19T21:49:20.475Z,99308.59
2023-03-19T21:51:48.627Z,99308.03
2023-03-19T21:54:17.960Z,99300.41
2023-03-19T21:56:46.315Z,99298.16
2023-03-19T21:59:24.390Z,99297.78
2023-03-19T22:01:52.908Z,99293.81
2023-03-19T22:04:21.596Z,99285.88
2023-03-19T22:06:49.843Z,99293.66
2023-03-19T22:09:18.060Z,99283.47
2023-03-19T22:11:46.677Z,99285.41
2023-03-19T22:14:27.001Z,99278.19
2023-03-19T22:16:56.633Z,99280.75
2023-03-19T22:19:26.241Z,99274.03
2023-03-19T22:21:54.428Z,99279.28
2023-03-19T22:24:22.868Z,99276.09
2023-03-19T22:26:53.546Z,99273.88
2023-03-19T22:29:25.634Z,99270.97
2023-03-19T22:31:55.755Z,99266.09
2023-03-19T22:34:26.439Z,99266.44
2023-03-19T22:36:55.111Z,99273.28
2023-03-19T22:39:23.347Z,99268.47
2023-03-19T22:41:51.462Z,99270.06
2023-03-19T22:44:32.289Z,99265.69
2023-03-19T22:47:01.262Z,99264.41
2023-03-19T22:49:30.190Z,99259.34
2023-03-19T22:51:58.808Z,99261.44
2023-03-19T22:54:27.915Z,99252.88
2023-03-19T22:56:56.473Z,99263.00
2023-03-19T22:59:24.702Z,99250.84
2023-03-19T23:01:52.992Z,99247.75
2023-03-19T23:04:29.868Z,99251.53
2023-03-19T23:06:58.207Z,99242.94
2023-03-19T23:09:29.729Z,99242.56
2023-03-19T23:11:59.653Z,99250.19
2023-03-19T23:14:30.828Z,99245.94
2023-03-19T23:17:06.922Z,99245.34
2023-03-19T23:19:37.103Z,99247.59
2023-03-19T23:22:07.340Z,99242.94
2023-03-19T23:24:35.883Z,99241.94
2023-03-19T23:27:04.539Z,99237.78
2023-03-19T23:29:37.108Z,99244.59
2023-03-19T23:32:06.228Z,99245.50
2023-03-19T23:34:42.573Z,99245.41
2023-03-19T23:37:18.563Z,99246.31
2023-03-19T23:39:47.906Z,99240.94
2023-03-19T23:42:29.942Z,99241.22
2023-03-19T23:44:59.981Z,99238.94
2023-03-19T23:47:29.477Z,99246.03
2023-03-19T23:49:57.840Z,99247.88
2023-03-19T23:52:26.498Z,99236.72
2023-03-19T23:54:54.743Z,99233.84
2023-03-19T23:57:24.165Z,99235.59
2023-03-19T23:59:52.912Z,99229.44
